createdAt,value
2022-11-12T00:01:16.969Z,101889.56
2022-11-12T00:06:38.812Z,101893.94
2022-11-12T00:12:00.671Z,101901.66
2022-11-12T00:17:22.518Z,101899.94
2022-11-12T00:22:44.762Z,101892.22
2022-11-12T00:28:09.753Z,101894.81
2022-11-12T00:33:31.745Z,101898.25
2022-11-12T00:38:53.576Z,101902.50
2022-11-12T00:44:15.429Z,101899.94
2022-11-12T00:49:37.347Z,101900.75
2022-11-12T00:54:59.173Z,101897.28
2022-11-12T01:00:21.165Z,101884.38
2022-11-12T01:05:42.961Z,101892.19
2022-11-12T01:11:07.086Z,101895.59
2022-11-12T01:16:31.394Z,101887.03
2022-11-12T01:21:53.209Z,101886.09
2022-11-12T01:27:15.104Z,101882.66
2022-11-12T01:32:37.122Z,101890.44
2022-11-12T01:37:58.959Z,101890.38
2022-11-12T01:43:20.765Z,101887.06
2022-11-12T01:48:59.698Z,101903.38
2022-11-12T01:54:22.589Z,101901.69
2022-11-12T01:59:47.988Z,101899.06
2022-11-12T02:05:11.244Z,101892.25
2022-11-12T02:10:34.801Z,101887.94
2022-11-12T02:15:56.611Z,101895.69
2022-11-12T02:21:20.302Z,101890.56
2022-11-12T02:26:46.055Z,101897.44
2022-11-12T02:32:07.913Z,101897.47
2022-11-12T02:37:29.709Z,101903.53
2022-11-12T02:42:51.574Z,101900.97
2022-11-12T02:48:18.953Z,101905.25
2022-11-12T02:53:41.629Z,101905.28
2022-11-12T02:59:03.596Z,101898.34
2022-11-12T03:04:25.459Z,101911.28
2022-11-12T03:09:47.912Z,101907.84
2022-11-12T03:15:10.088Z,101918.13
2022-11-12T03:20:31.922Z,101918.09
2022-11-12T03:25:53.945Z,101915.53
2022-11-12T03:31:15.792Z,101928.41
2022-11-12T03:36:37.651Z,101918.97
2022-11-12T03:41:59.500Z,101928.53
2022-11-12T03:47:21.356Z,101928.47
2022-11-12T03:52:47.597Z,101911.31
2022-11-12T03:58:09.406Z,101906.25
2022-11-12T04:03:31.232Z,101920.88
2022-11-12T04:08:53.013Z,101926.03
2022-11-12T04:14:14.797Z,101914.88
2022-11-12T04:19:36.628Z,101917.44
2022-11-12T04:24:58.444Z,101916.66
2022-11-12T04:30:20.297Z,101921.78
2022-11-12T04:35:42.116Z,101920.09
2022-11-12T04:41:03.914Z,101911.50
2022-11-12T04:46:25.718Z,101907.25
2022-11-12T04:51:47.537Z,101900.41
2022-11-12T04:57:09.640Z,101902.91
2022-11-12T05:02:31.514Z,101911.47
2022-11-12T05:07:53.321Z,101890.97
2022-11-12T05:13:15.115Z,101917.66
2022-11-12T05:18:36.893Z,101911.63
2022-11-12T05:23:58.772Z,101910.78
2022-11-12T05:29:20.619Z,101897.03
2022-11-12T05:34:42.772Z,101918.53
2022-11-12T05:40:05.118Z,101904.81
2022-11-12T05:45:26.950Z,101933.16
2022-11-12T05:51:11.928Z,101933.16
2022-11-12T05:56:35.602Z,101936.63
2022-11-12T06:01:57.407Z,101939.22
2022-11-12T06:07:19.321Z,101953.03
2022-11-12T06:12:41.436Z,101953.00
2022-11-12T06:18:03.343Z,101953.03
2022-11-12T06:23:25.125Z,101941.00
2022-11-12T06:28:47.804Z,101958.19
2022-11-12T06:34:09.642Z,101964.22
2022-11-12T06:39:32.625Z,101966.81
2022-11-12T06:44:54.466Z,101969.41
2022-11-12T06:50:16.377Z,101976.28
2022-11-12T06:55:38.181Z,101965.13
2022-11-12T07:01:10.965Z,101980.59
2022-11-12T07:06:34.387Z,101983.13
2022-11-12T07:11:56.316Z,101998.63
2022-11-12T07:17:18.224Z,102003.78
2022-11-12T07:22:40.059Z,102005.47
2022-11-12T07:28:01.878Z,101996.03
2022-11-12T07:33:23.897Z,101996.88
2022-11-12T07:38:46.228Z,101999.50
2022-11-12T07:44:08.066Z,101999.47
2022-11-12T07:49:29.983Z,102013.25
2022-11-12T07:54:51.918Z,102008.94
2022-11-12T08:00:14.547Z,102010.66
2022-11-12T08:05:36.323Z,101986.59
2022-11-12T08:10:59.622Z,101993.47
2022-11-12T08:16:21.554Z,102008.06
2022-11-12T08:21:43.379Z,102007.22
2022-11-12T08:27:05.226Z,102004.63
2022-11-12T08:32:27.413Z,102005.47
2022-11-12T08:37:49.315Z,101996.91
2022-11-12T08:43:11.522Z,102020.13
2022-11-12T08:48:34.334Z,102013.22
2022-11-12T08:53:56.173Z,102020.09
2022-11-12T08:59:17.952Z,102014.94
2022-11-12T09:04:39.761Z,102021.84
2022-11-12T09:10:01.695Z,102027.84
2022-11-12T09:15:40.213Z,102040.72
2022-11-12T09:21:08.387Z,102044.19
2022-11-12T09:26:30.168Z,102041.59
2022-11-12T09:31:52.022Z,102038.19
2022-11-12T09:37:13.927Z,102033.88
2022-11-12T09:42:36.767Z,102039.03
2022-11-12T09:48:05.940Z,102046.78
2022-11-12T09:53:56.427Z,102045.03
2022-11-12T09:59:19.302Z,102028.69
2022-11-12T10:04:51.454Z,102048.47
2022-11-12T10:10:19.067Z,102050.19
2022-11-12T10:15:53.887Z,102039.84
2022-11-12T10:21:24.444Z,102037.31
2022-11-12T10:26:46.721Z,102052.78
2022-11-12T10:32:15.121Z,102061.41
2022-11-12T10:37:42.740Z,102068.25
2022-11-12T10:43:25.582Z,102062.25
2022-11-12T10:48:57.197Z,102057.91
2022-11-12T10:54:27.775Z,102057.03
2022-11-12T11:00:12.288Z,102050.16
2022-11-12T11:05:35.575Z,102068.22
2022-11-12T11:11:28.161Z,102063.97
2022-11-12T11:16:53.154Z,102067.41
2022-11-12T11:22:27.312Z,102053.63
2022-11-12T11:28:15.028Z,102050.22
2022-11-12T11:34:02.591Z,102053.63
2022-11-12T11:39:44.612Z,102055.38
2022-11-12T11:45:16.238Z,102064.84
2022-11-12T11:50:54.705Z,102059.69
2022-11-12T11:56:40.072Z,102057.94
2022-11-12T12:02:17.630Z,102070.84
2022-11-12T12:07:58.978Z,102063.09
2022-11-12T12:14:00.710Z,102061.38
2022-11-12T12:19:25.584Z,102057.94
2022-11-12T12:24:54.856Z,102049.34
2022-11-12T12:30:22.765Z,102045.91
2022-11-12T12:35:54.960Z,102049.34
2022-11-12T12:41:26.858Z,102055.34
2022-11-12T12:46:54.892Z,102057.09
2022-11-12T12:52:16.946Z,102058.78
2022-11-12T12:57:39.827Z,102052.75
2022-11-12T13:03:02.071Z,102051.00
2022-11-12T13:08:26.181Z,102044.97
2022-11-12T13:13:48.266Z,102052.69
2022-11-12T13:19:10.114Z,102056.13
2022-11-12T13:25:26.105Z,102062.16
2022-11-12T13:30:47.839Z,102066.47
2022-11-12T13:36:27.857Z,102063.00
2022-11-12T13:41:59.377Z,102062.16
2022-11-12T13:47:22.477Z,102070.75
2022-11-12T13:52:46.087Z,102050.13
2022-11-12T13:58:19.939Z,102056.13
2022-11-12T14:03:48.603Z,102063.88
2022-11-12T14:09:13.349Z,102055.25
2022-11-12T14:15:12.504Z,102061.34
2022-11-12T14:20:40.271Z,102048.47
2022-11-12T14:26:02.111Z,102049.28
2022-11-12T14:31:25.248Z,102048.41
2022-11-12T14:36:47.717Z,102051.88
2022-11-12T14:42:15.138Z,102061.34
2022-11-12T14:47:36.987Z,102052.75
2022-11-12T14:53:09.625Z,102051.00
2022-11-12T14:58:33.254Z,102053.59
2022-11-12T15:04:10.981Z,102044.13
2022-11-12T15:09:35.241Z,102055.28
2022-11-12T15:15:26.509Z,102071.63
2022-11-12T15:21:27.909Z,102067.34
2022-11-12T15:26:50.428Z,102055.31
2022-11-12T15:32:14.018Z,102061.34
2022-11-12T15:37:42.336Z,102075.13
2022-11-12T15:43:14.411Z,102081.09
2022-11-12T15:48:36.233Z,102069.09
2022-11-12T15:53:58.001Z,102076.81
2022-11-12T15:59:19.821Z,102083.66
2022-11-12T16:04:41.613Z,102088.88
2022-11-12T16:10:03.612Z,102092.28
2022-11-12T16:15:25.655Z,102106.06
2022-11-12T16:20:48.025Z,102108.63
2022-11-12T16:26:14.681Z,102106.91
2022-11-12T16:31:36.503Z,102125.91
2022-11-12T16:36:58.690Z,102112.09
2022-11-12T16:42:20.504Z,102118.97
2022-11-12T16:47:49.903Z,102118.09
2022-11-12T16:53:12.045Z,102114.72
2022-11-12T16:58:33.811Z,102119.81
2022-11-12T17:03:56.834Z,102110.34
2022-11-12T17:09:18.609Z,102107.78
2022-11-12T17:14:40.388Z,102114.69
2022-11-12T17:20:02.239Z,102118.09
2022-11-12T17:25:24.012Z,102100.03
2022-11-12T17:30:45.787Z,102106.06
2022-11-12T17:36:09.917Z,102110.31
2022-11-12T17:41:31.810Z,102111.22
2022-11-12T17:46:53.670Z,102116.41
2022-11-12T17:52:15.533Z,102112.13
2022-11-12T17:57:37.460Z,102100.94
2022-11-12T18:02:59.356Z,102106.94
2022-11-12T18:08:21.178Z,102102.66
2022-11-12T18:13:42.976Z,102109.53
2022-11-12T18:19:05.093Z,102089.75
2022-11-12T18:24:26.897Z,102105.22
2022-11-12T18:29:48.665Z,102094.91
2022-11-12T18:35:10.452Z,102101.81
2022-11-12T18:40:32.254Z,102094.06
2022-11-12T18:45:57.972Z,102111.25
2022-11-12T18:51:20.202Z,102102.63
2022-11-12T18:56:42.302Z,102116.41
2022-11-12T19:02:04.183Z,102099.19
2022-11-12T19:07:26.084Z,102120.69
2022-11-12T19:12:47.862Z,102118.97
2022-11-12T19:18:09.647Z,102118.97
2022-11-12T19:23:31.727Z,102100.06
2022-11-12T19:28:54.036Z,102116.44
2022-11-12T19:34:15.846Z,102095.78
2022-11-12T19:39:37.629Z,102128.50
2022-11-12T19:44:59.472Z,102113.88
2022-11-12T19:50:24.655Z,102121.59
2022-11-12T19:55:46.784Z,102119.91
2022-11-12T20:01:10.873Z,102122.50
2022-11-12T20:06:32.688Z,102128.50
2022-11-12T20:11:54.490Z,102146.56
2022-11-12T20:17:16.277Z,102137.09
2022-11-12T20:22:38.108Z,102123.34
2022-11-12T20:27:59.927Z,102131.94
2022-11-12T20:33:21.691Z,102126.78
2022-11-12T20:38:44.590Z,102144.00
2022-11-12T20:44:06.658Z,102146.56
2022-11-12T20:49:28.573Z,102147.44
2022-11-12T20:54:50.364Z,102143.13
2022-11-12T21:00:14.720Z,102140.53
2022-11-12T21:05:37.805Z,102143.97
2022-11-12T21:11:02.298Z,102122.47
2022-11-12T21:16:24.126Z,102140.53
2022-11-12T21:21:46.128Z,102129.31
2022-11-12T21:27:07.926Z,102134.50
2022-11-12T21:32:29.716Z,102140.53
2022-11-12T21:37:51.588Z,102134.53
2022-11-12T21:43:13.429Z,102149.09
2022-11-12T21:48:35.763Z,102145.66
2022-11-12T21:54:00.531Z,102156.88
2022-11-12T21:59:22.316Z,102144.84
2022-11-12T22:04:44.146Z,102149.13
2022-11-12T22:10:06.505Z,102156.03
2022-11-12T22:15:28.297Z,102149.13
2022-11-12T22:21:00.958Z,102143.09
2022-11-12T22:26:25.525Z,102148.25
2022-11-12T22:31:47.367Z,102145.66
2022-11-12T22:37:09.137Z,102135.34
2022-11-12T22:42:30.949Z,102145.66
2022-11-12T22:47:52.839Z,102148.25
2022-11-12T22:53:14.624Z,102131.03
2022-11-12T22:58:37.578Z,102143.13
2022-11-12T23:04:01.747Z,102144.84
2022-11-12T23:09:23.525Z,102135.38
2022-11-12T23:14:45.325Z,102143.97
2022-11-12T23:20:07.749Z,102147.38
2022-11-12T23:25:29.789Z,102136.22
2022-11-12T23:30:51.615Z,102139.66
2022-11-12T23:36:13.996Z,102122.44
2022-11-12T23:41:35.989Z,102137.09
2022-11-12T23:46:57.829Z,102132.78
2022-11-12T23:52:19.604Z,102134.50
2022-11-12T23:57:41.395Z,102142.22
